createdAt,value
2022-10-12T00:02:19.282Z,17.00
2022-10-12T00:04:42.636Z,15.18
2022-10-12T00:07:05.904Z,16.75
2022-10-12T00:09:29.140Z,17.50
2022-10-12T00:11:52.410Z,16.55
2022-10-12T00:14:15.684Z,17.83
2022-10-12T00:16:39.115Z,18.30
2022-10-12T00:19:04.122Z,16.95
2022-10-12T00:21:29.571Z,17.23
2022-10-12T00:23:53.118Z,18.20
2022-10-12T00:26:24.343Z,20.83
2022-10-12T00:28:48.619Z,16.27
2022-10-12T00:31:15.044Z,15.75
2022-10-12T00:33:39.114Z,17.00
2022-10-12T00:36:14.069Z,17.42
2022-10-12T00:38:37.337Z,20.83
2022-10-12T00:41:00.544Z,19.83
2022-10-12T00:43:30.030Z,15.38
2022-10-12T00:45:53.347Z,19.55
2022-10-12T00:48:16.921Z,20.25
2022-10-12T00:50:40.329Z,23.80
2022-10-12T00:53:11.489Z,20.30
2022-10-12T00:55:41.652Z,18.95
2022-10-12T00:58:06.477Z,16.75
2022-10-12T01:00:29.958Z,14.05
2022-10-12T01:02:55.245Z,19.30
2022-10-12T01:05:19.673Z,20.48
2022-10-12T01:07:42.969Z,19.20
2022-10-12T01:10:09.021Z,15.63
2022-10-12T01:12:33.472Z,20.30
2022-10-12T01:14:56.795Z,14.80
2022-10-12T01:17:34.048Z,16.90
2022-10-12T01:20:42.011Z,16.13
2022-10-12T01:23:43.657Z,19.05
2022-10-12T01:26:51.834Z,16.88
2022-10-12T01:29:48.149Z,16.23
2022-10-12T01:32:20.192Z,14.73
2022-10-12T01:34:48.491Z,18.02
2022-10-12T01:37:21.751Z,15.70
2022-10-12T01:39:51.128Z,12.80
2022-10-12T01:42:21.414Z,21.05
2022-10-12T01:44:44.724Z,14.48
2022-10-12T01:47:07.970Z,17.60
2022-10-12T01:49:35.888Z,17.20
2022-10-12T01:52:26.489Z,16.17
2022-10-12T01:55:26.139Z,16.17
2022-10-12T01:58:06.503Z,14.10
2022-10-12T02:00:31.802Z,15.48
2022-10-12T02:03:03.028Z,15.23
2022-10-12T02:05:36.530Z,17.08
2022-10-12T02:08:09.204Z,13.88
2022-10-12T02:10:40.879Z,13.45
2022-10-12T02:13:08.768Z,18.10
2022-10-12T02:15:34.477Z,15.75
2022-10-12T02:17:59.581Z,14.27
2022-10-12T02:20:25.054Z,16.05
2022-10-12T02:22:51.624Z,15.80
2022-10-12T02:25:18.237Z,14.23
2022-10-12T02:27:47.164Z,14.45
2022-10-12T02:30:12.218Z,14.80
2022-10-12T02:32:40.884Z,14.50
2022-10-12T02:35:10.062Z,14.73
2022-10-12T02:37:38.093Z,15.13
2022-10-12T02:40:12.369Z,13.80
2022-10-12T02:43:08.857Z,16.10
2022-10-12T02:45:27.031Z,13.98
2022-10-12T02:47:53.903Z,15.68
2022-10-12T02:50:18.397Z,15.93
2022-10-12T02:52:42.064Z,16.27
2022-10-12T02:55:08.024Z,16.23
2022-10-12T02:57:31.259Z,15.50
2022-10-12T02:59:54.610Z,15.85
2022-10-12T03:02:17.852Z,15.40
2022-10-12T03:04:41.140Z,14.38
2022-10-12T03:07:05.023Z,17.52
2022-10-12T03:09:28.253Z,16.85
2022-10-12T03:11:52.887Z,18.38
2022-10-12T03:14:17.456Z,18.40
2022-10-12T03:16:40.774Z,23.30
2022-10-12T03:19:04.124Z,19.13
2022-10-12T03:21:27.406Z,26.17
2022-10-12T03:23:50.680Z,19.88
2022-10-12T03:26:14.324Z,25.67
2022-10-12T03:28:39.046Z,23.05
2022-10-12T03:31:03.650Z,26.83
2022-10-12T03:33:27.260Z,23.30
2022-10-12T03:35:50.689Z,21.90
2022-10-12T03:38:14.321Z,24.45
2022-10-12T03:40:37.557Z,25.88
2022-10-12T03:43:00.929Z,24.75
2022-10-12T03:45:25.635Z,23.17
2022-10-12T03:47:49.068Z,21.05
2022-10-12T03:50:12.652Z,16.92
2022-10-12T03:52:35.953Z,21.58
2022-10-12T03:54:59.247Z,24.15
2022-10-12T03:57:22.533Z,26.83
2022-10-12T03:59:45.840Z,18.27
2022-10-12T04:02:15.826Z,16.33
2022-10-12T04:04:40.060Z,20.25
2022-10-12T04:07:03.282Z,18.35
2022-10-12T04:09:26.803Z,19.67
2022-10-12T04:11:50.031Z,19.55
2022-10-12T04:14:13.605Z,20.85
2022-10-12T04:16:36.920Z,17.20
2022-10-12T04:19:01.537Z,20.95
2022-10-12T04:21:26.122Z,20.75
2022-10-12T04:23:49.460Z,15.73
2022-10-12T04:26:12.759Z,18.02
2022-10-12T04:28:36.799Z,19.50
2022-10-12T04:31:00.156Z,15.82
2022-10-12T04:33:23.424Z,21.80
2022-10-12T04:35:48.204Z,17.27
2022-10-12T04:38:13.081Z,15.38
2022-10-12T04:40:36.393Z,16.40
2022-10-12T04:42:59.686Z,21.67
2022-10-12T04:45:23.345Z,20.05
2022-10-12T04:47:46.678Z,14.95
2022-10-12T04:50:10.357Z,14.65
2022-10-12T04:52:35.025Z,16.25
2022-10-12T04:54:59.130Z,19.60
2022-10-12T04:57:22.356Z,18.50
2022-10-12T04:59:45.940Z,20.13
2022-10-12T05:02:09.206Z,18.40
2022-10-12T05:04:32.489Z,19.20
2022-10-12T05:06:55.790Z,19.67
2022-10-12T05:09:20.574Z,14.63
2022-10-12T05:11:43.939Z,13.63
2022-10-12T05:14:07.327Z,20.30
2022-10-12T05:16:30.740Z,17.30
2022-10-12T05:18:54.053Z,16.63
2022-10-12T05:21:17.505Z,19.10
2022-10-12T05:23:40.714Z,17.73
2022-10-12T05:26:05.915Z,19.95
2022-10-12T05:28:29.403Z,21.20
2022-10-12T05:30:53.916Z,19.23
2022-10-12T05:33:17.247Z,23.20
2022-10-12T05:35:45.242Z,18.88
2022-10-12T05:38:10.688Z,23.52
2022-10-12T05:40:33.980Z,25.13
2022-10-12T05:42:58.575Z,21.20
2022-10-12T05:45:21.834Z,20.60
2022-10-12T05:47:45.059Z,19.88
2022-10-12T05:50:09.909Z,24.42
2022-10-12T05:52:33.207Z,23.00
2022-10-12T05:54:57.071Z,23.00
2022-10-12T05:57:20.350Z,25.42
2022-10-12T05:59:45.000Z,21.23
2022-10-12T06:02:08.496Z,26.98
2022-10-12T06:04:31.826Z,29.58
2022-10-12T06:06:55.507Z,23.25
2022-10-12T06:09:19.093Z,24.20
2022-10-12T06:11:42.510Z,25.77
2022-10-12T06:14:06.018Z,25.30
2022-10-12T06:16:30.680Z,25.88
2022-10-12T06:18:54.576Z,21.73
2022-10-12T06:21:32.947Z,23.65
2022-10-12T06:23:57.494Z,26.45
2022-10-12T06:26:20.916Z,24.98
2022-10-12T06:28:44.393Z,27.25
2022-10-12T06:31:07.917Z,28.63
2022-10-12T06:33:32.655Z,23.73
2022-10-12T06:35:56.036Z,33.30
2022-10-12T06:38:19.530Z,30.60
2022-10-12T06:40:42.848Z,32.30
2022-10-12T06:43:06.163Z,24.55
2022-10-12T06:45:29.603Z,24.35
2022-10-12T06:47:53.017Z,28.13
2022-10-12T06:50:17.806Z,24.65
2022-10-12T06:52:41.307Z,26.00
2022-10-12T06:55:05.375Z,22.00
2022-10-12T06:57:28.884Z,24.75
2022-10-12T06:59:52.145Z,24.52
2022-10-12T07:02:15.545Z,37.55
2022-10-12T07:04:38.875Z,41.35
2022-10-12T07:07:03.935Z,34.70
2022-10-12T07:09:27.218Z,36.83
2022-10-12T07:11:50.415Z,44.35
2022-10-12T07:14:13.689Z,42.00
2022-10-12T07:16:36.932Z,45.90
2022-10-12T07:19:00.217Z,39.92
2022-10-12T07:21:23.528Z,35.83
2022-10-12T07:23:48.155Z,28.38
2022-10-12T07:26:11.936Z,33.60
2022-10-12T07:28:35.754Z,36.20
2022-10-12T07:31:03.150Z,32.40
2022-10-12T07:33:26.469Z,35.83
2022-10-12T07:36:13.280Z,35.97
2022-10-12T07:38:37.461Z,27.73
2022-10-12T07:41:03.984Z,29.30
2022-10-12T07:43:27.363Z,26.45
2022-10-12T07:45:50.568Z,30.42
2022-10-12T07:48:13.910Z,23.17
2022-10-12T07:50:37.513Z,20.27
2022-10-12T07:53:00.765Z,24.30
2022-10-12T07:55:24.092Z,17.55
2022-10-12T07:57:48.962Z,22.52
2022-10-12T08:00:13.446Z,20.40
2022-10-12T08:02:37.392Z,17.23
2022-10-12T08:05:00.689Z,16.05
2022-10-12T08:07:24.006Z,18.63
2022-10-12T08:09:49.476Z,16.75
2022-10-12T08:12:12.799Z,17.05
2022-10-12T08:14:37.461Z,13.55
2022-10-12T08:17:00.760Z,17.92
2022-10-12T08:19:24.079Z,19.65
2022-10-12T08:21:47.735Z,12.98
2022-10-12T08:24:11.617Z,14.88
2022-10-12T08:26:34.851Z,17.02
2022-10-12T08:28:58.223Z,16.50
2022-10-12T08:31:22.950Z,17.90
2022-10-12T08:33:46.478Z,16.25
2022-10-12T08:36:12.004Z,13.05
2022-10-12T08:38:36.622Z,17.48
2022-10-12T08:41:13.023Z,16.98
2022-10-12T08:43:52.943Z,15.57
2022-10-12T08:46:22.175Z,14.85
2022-10-12T08:48:49.242Z,13.05
2022-10-12T08:51:17.690Z,16.65
2022-10-12T08:53:49.179Z,18.42
2022-10-12T08:56:12.525Z,16.85
2022-10-12T08:58:39.215Z,11.90
2022-10-12T09:01:16.796Z,10.45
2022-10-12T09:03:58.546Z,11.88
2022-10-12T09:06:25.625Z,12.75
2022-10-12T09:09:09.850Z,17.30
2022-10-12T09:11:54.180Z,11.20
2022-10-12T09:14:23.353Z,16.30
2022-10-12T09:16:49.835Z,13.48
2022-10-12T09:19:21.214Z,15.38
2022-10-12T09:21:48.424Z,20.48
2022-10-12T09:24:18.399Z,11.65
2022-10-12T09:26:41.857Z,13.90
2022-10-12T09:29:25.065Z,14.82
2022-10-12T09:32:20.243Z,18.77
2022-10-12T09:34:46.230Z,13.07
2022-10-12T09:37:20.200Z,15.52
2022-10-12T09:39:43.497Z,15.48
2022-10-12T09:42:06.992Z,12.32
2022-10-12T09:44:36.217Z,18.73
2022-10-12T09:47:02.363Z,18.45
2022-10-12T09:49:41.753Z,16.35
2022-10-12T09:52:06.528Z,17.13
2022-10-12T09:54:29.854Z,18.05
2022-10-12T09:56:55.334Z,20.95
2022-10-12T09:59:29.442Z,19.02
2022-10-12T10:02:01.031Z,20.83
2022-10-12T10:04:26.749Z,18.13
2022-10-12T10:06:51.110Z,17.63
2022-10-12T10:09:32.934Z,24.00
2022-10-12T10:11:57.099Z,18.45
2022-10-12T10:14:20.791Z,14.18
2022-10-12T10:16:50.421Z,15.73
2022-10-12T10:19:20.018Z,15.85
2022-10-12T10:21:43.489Z,19.30
2022-10-12T10:24:10.156Z,13.52
2022-10-12T10:26:55.715Z,13.10
2022-10-12T10:29:36.570Z,12.70
2022-10-12T10:32:24.253Z,14.00
2022-10-12T10:34:47.900Z,15.70
2022-10-12T10:37:21.000Z,16.83
2022-10-12T10:39:48.988Z,12.85
2022-10-12T10:42:19.440Z,13.65
2022-10-12T10:44:50.962Z,14.68
2022-10-12T10:47:14.971Z,13.05
2022-10-12T10:49:45.627Z,11.60
2022-10-12T10:52:23.930Z,11.18
2022-10-12T10:54:49.600Z,10.88
2022-10-12T10:57:19.492Z,13.27
2022-10-12T10:59:49.831Z,13.57
2022-10-12T11:02:32.841Z,12.77
2022-10-12T11:05:05.883Z,13.35
2022-10-12T11:07:36.686Z,13.73
2022-10-12T11:10:05.078Z,10.73
2022-10-12T11:12:33.366Z,12.20
2022-10-12T11:15:02.508Z,16.17
2022-10-12T11:17:31.563Z,11.45
2022-10-12T11:20:07.465Z,14.15
2022-10-12T11:22:40.182Z,15.65
2022-10-12T11:25:11.114Z,11.13
2022-10-12T11:27:39.420Z,10.98
2022-10-12T11:30:09.953Z,13.00
2022-10-12T11:32:37.434Z,14.60
2022-10-12T11:35:04.452Z,11.13
2022-10-12T11:37:39.270Z,15.00
2022-10-12T11:40:07.487Z,19.65
2022-10-12T11:42:42.412Z,16.35
2022-10-12T11:45:20.152Z,31.15
2022-10-12T11:47:47.385Z,10.15
2022-10-12T11:50:28.455Z,11.60
2022-10-12T11:52:54.865Z,15.38
2022-10-12T11:55:34.595Z,15.88
2022-10-12T11:58:10.719Z,11.52
2022-10-12T12:00:56.712Z,12.95
2022-10-12T12:03:29.579Z,13.52
2022-10-12T12:05:52.966Z,12.93
2022-10-12T12:08:24.050Z,12.43
2022-10-12T12:11:05.324Z,12.25
2022-10-12T12:13:30.236Z,14.48
2022-10-12T12:16:34.314Z,15.77
2022-10-12T12:19:37.835Z,9.93
2022-10-12T12:22:24.181Z,13.05
2022-10-12T12:25:06.861Z,13.55
2022-10-12T12:27:35.496Z,11.80
2022-10-12T12:30:02.528Z,6.63
2022-10-12T12:32:27.949Z,7.85
2022-10-12T12:35:00.217Z,10.20
2022-10-12T12:37:28.006Z,12.13
2022-10-12T12:39:57.097Z,8.55
2022-10-12T12:42:25.261Z,11.18
2022-10-12T12:44:48.729Z,7.85
2022-10-12T12:47:46.708Z,8.27
2022-10-12T12:50:35.502Z,9.88
2022-10-12T12:53:07.206Z,6.40
2022-10-12T12:55:55.053Z,7.65
2022-10-12T12:59:02.473Z,12.02
2022-10-12T13:01:48.158Z,8.70
2022-10-12T13:04:33.401Z,11.98
2022-10-12T13:07:43.210Z,10.13
2022-10-12T13:10:24.867Z,11.35
2022-10-12T13:13:10.891Z,6.30
2022-10-12T13:16:19.540Z,9.48
2022-10-12T13:19:00.670Z,13.05
2022-10-12T13:21:28.360Z,13.35
2022-10-12T13:23:59.514Z,8.77
2022-10-12T13:26:27.321Z,10.63
2022-10-12T13:28:52.070Z,10.55
2022-10-12T13:31:21.483Z,11.13
2022-10-12T13:33:51.942Z,15.13
2022-10-12T13:36:25.043Z,17.33
2022-10-12T13:38:48.324Z,10.45
2022-10-12T13:41:14.407Z,14.23
2022-10-12T13:43:45.914Z,10.15
2022-10-12T13:46:12.314Z,10.50
2022-10-12T13:49:00.562Z,9.40
2022-10-12T13:51:29.593Z,10.25
2022-10-12T13:53:52.852Z,8.65
2022-10-12T13:56:20.269Z,9.82
2022-10-12T13:58:44.011Z,10.25
2022-10-12T14:01:07.642Z,6.50
2022-10-12T14:03:38.862Z,9.73
2022-10-12T14:06:04.457Z,12.30
2022-10-12T14:08:30.599Z,10.75
2022-10-12T14:10:54.888Z,15.45
2022-10-12T14:13:26.656Z,12.63
2022-10-12T14:15:50.472Z,10.68
2022-10-12T14:18:39.871Z,9.50
2022-10-12T14:21:14.324Z,11.32
2022-10-12T14:23:47.624Z,11.50
2022-10-12T14:26:26.738Z,10.18
2022-10-12T14:28:50.539Z,17.45
2022-10-12T14:31:13.806Z,13.32
2022-10-12T14:33:37.217Z,13.32
2022-10-12T14:36:15.450Z,13.02
2022-10-12T14:38:44.151Z,12.35
2022-10-12T14:41:39.334Z,8.85
2022-10-12T14:44:13.881Z,12.77
2022-10-12T14:46:37.622Z,10.27
2022-10-12T14:49:00.847Z,12.65
2022-10-12T14:51:24.088Z,16.40
2022-10-12T14:54:00.031Z,10.02
2022-10-12T14:56:23.683Z,11.00
2022-10-12T14:58:46.962Z,10.88
2022-10-12T15:01:11.018Z,13.32
2022-10-12T15:03:34.528Z,12.90
2022-10-12T15:05:57.779Z,13.00
2022-10-12T15:08:21.106Z,13.57
2022-10-12T15:10:46.997Z,15.38
2022-10-12T15:13:13.612Z,12.48
2022-10-12T15:15:42.394Z,15.82
2022-10-12T15:18:06.680Z,8.82
2022-10-12T15:20:31.818Z,17.35
2022-10-12T15:22:55.046Z,12.90
2022-10-12T15:25:23.456Z,17.95
2022-10-12T15:27:48.267Z,15.95
2022-10-12T15:30:14.008Z,15.52
2022-10-12T15:32:37.386Z,11.25
2022-10-12T15:35:00.740Z,9.63
2022-10-12T15:37:27.759Z,9.80
2022-10-12T15:39:51.320Z,10.82
2022-10-12T15:42:14.749Z,10.75
2022-10-12T15:44:42.684Z,14.95
2022-10-12T15:47:06.040Z,9.75
2022-10-12T15:49:29.336Z,6.93
2022-10-12T15:51:54.789Z,11.45
2022-10-12T15:54:18.558Z,11.73
2022-10-12T15:56:42.119Z,8.90
2022-10-12T15:59:05.750Z,8.20
2022-10-12T16:01:30.770Z,7.53
2022-10-12T16:03:54.069Z,11.48
2022-10-12T16:06:17.814Z,12.57
2022-10-12T16:08:41.355Z,11.27
2022-10-12T16:11:05.648Z,11.77
2022-10-12T16:13:28.900Z,11.60
2022-10-12T16:15:52.117Z,10.93
2022-10-12T16:18:17.561Z,8.45
2022-10-12T16:20:42.050Z,9.73
2022-10-12T16:23:08.289Z,13.30
2022-10-12T16:25:31.655Z,9.60
2022-10-12T16:27:57.408Z,8.57
2022-10-12T16:30:21.603Z,9.52
2022-10-12T16:32:44.934Z,12.70
2022-10-12T16:35:11.286Z,11.73
2022-10-12T16:37:35.815Z,15.35
2022-10-12T16:39:59.099Z,13.02
2022-10-12T16:42:22.849Z,8.65
2022-10-12T16:44:46.683Z,11.95
2022-10-12T16:47:09.983Z,8.75
2022-10-12T16:49:33.274Z,14.18
2022-10-12T16:51:57.937Z,17.08
2022-10-12T16:54:21.776Z,11.43
2022-10-12T16:56:44.993Z,15.32
2022-10-12T16:59:08.239Z,15.98
2022-10-12T17:01:31.605Z,10.88
2022-10-12T17:03:55.087Z,12.25
2022-10-12T17:06:18.346Z,13.85
2022-10-12T17:08:42.915Z,12.07
2022-10-12T17:11:08.258Z,16.15
2022-10-12T17:13:32.827Z,13.05
2022-10-12T17:15:59.367Z,10.98
2022-10-12T17:18:22.727Z,12.05
2022-10-12T17:20:48.240Z,13.80
2022-10-12T17:23:14.023Z,13.32
2022-10-12T17:25:38.645Z,14.02
2022-10-12T17:28:01.879Z,20.67
2022-10-12T17:30:25.298Z,18.23
2022-10-12T17:32:48.933Z,10.15
2022-10-12T17:35:12.307Z,13.73
2022-10-12T17:37:35.562Z,12.35
2022-10-12T17:39:59.683Z,15.15
2022-10-12T17:42:25.552Z,13.25
2022-10-12T17:44:48.925Z,17.67
2022-10-12T17:47:12.205Z,14.43
2022-10-12T17:49:35.511Z,13.40
2022-10-12T17:51:58.844Z,12.52
2022-10-12T17:54:23.425Z,14.57
2022-10-12T17:56:46.881Z,18.13
2022-10-12T17:59:17.320Z,20.20
2022-10-12T18:01:40.961Z,13.93
2022-10-12T18:04:05.383Z,17.65
2022-10-12T18:06:29.919Z,13.25
2022-10-12T18:08:53.645Z,16.02
2022-10-12T18:11:21.204Z,16.20
2022-10-12T18:13:48.202Z,20.63
2022-10-12T18:16:13.166Z,26.42
2022-10-12T18:18:36.414Z,20.25
2022-10-12T18:20:59.620Z,18.45
2022-10-12T18:23:23.009Z,18.52
2022-10-12T18:25:47.466Z,17.77
2022-10-12T18:28:12.869Z,16.70
2022-10-12T18:30:37.147Z,18.88
2022-10-12T18:33:01.790Z,18.35
2022-10-12T18:35:27.934Z,22.70
2022-10-12T18:37:51.297Z,22.63
2022-10-12T18:40:14.525Z,21.17
2022-10-12T18:42:37.844Z,22.13
2022-10-12T18:45:01.165Z,18.30
2022-10-12T18:47:24.711Z,19.85
2022-10-12T18:49:51.459Z,21.92
2022-10-12T18:52:14.715Z,19.38
2022-10-12T18:54:38.805Z,17.27
2022-10-12T18:57:02.478Z,18.25
2022-10-12T18:59:25.716Z,20.05
2022-10-12T19:01:49.682Z,17.10
2022-10-12T19:04:13.706Z,17.40
2022-10-12T19:06:42.330Z,24.42
2022-10-12T19:09:06.348Z,20.80
2022-10-12T19:11:31.085Z,18.95
2022-10-12T19:13:57.047Z,20.92
2022-10-12T19:16:20.712Z,19.85
2022-10-12T19:18:44.814Z,20.23
2022-10-12T19:21:10.364Z,23.00
2022-10-12T19:23:35.082Z,26.25
2022-10-12T19:25:58.293Z,22.75
2022-10-12T19:28:22.040Z,28.20
2022-10-12T19:30:45.449Z,29.33
2022-10-12T19:33:08.741Z,26.08
2022-10-12T19:35:32.124Z,33.35
2022-10-12T19:37:55.353Z,26.17
2022-10-12T19:40:20.399Z,26.92
2022-10-12T19:42:43.901Z,30.45
2022-10-12T19:45:09.042Z,30.85
2022-10-12T19:47:32.289Z,32.33
2022-10-12T19:49:55.664Z,30.92
2022-10-12T19:52:19.297Z,28.40
2022-10-12T19:54:42.742Z,27.25
2022-10-12T19:57:07.322Z,28.67
2022-10-12T19:59:30.776Z,26.77
2022-10-12T20:01:54.074Z,26.10
2022-10-12T20:04:17.544Z,30.90
2022-10-12T20:06:41.082Z,30.02
2022-10-12T20:09:05.464Z,27.88
2022-10-12T20:11:29.412Z,25.30
2022-10-12T20:13:54.679Z,27.75
2022-10-12T20:16:20.617Z,25.08
2022-10-12T20:18:44.017Z,30.83
2022-10-12T20:21:08.192Z,25.77
2022-10-12T20:23:34.972Z,21.77
2022-10-12T20:25:58.285Z,24.77
2022-10-12T20:28:22.694Z,25.45
2022-10-12T20:30:48.219Z,22.25
2022-10-12T20:33:11.844Z,25.70
2022-10-12T20:35:35.773Z,23.50
2022-10-12T20:37:59.271Z,25.25
2022-10-12T20:40:22.864Z,25.27
2022-10-12T20:42:46.358Z,23.95
2022-10-12T20:45:14.081Z,25.73
2022-10-12T20:47:38.750Z,26.00
2022-10-12T20:50:02.232Z,23.98
2022-10-12T20:52:25.451Z,21.02
2022-10-12T20:54:51.719Z,25.15
2022-10-12T20:57:14.957Z,25.70
2022-10-12T20:59:38.434Z,20.10
2022-10-12T21:02:01.873Z,23.30
2022-10-12T21:04:27.406Z,24.20
2022-10-12T21:06:51.117Z,22.08
2022-10-12T21:09:15.864Z,22.38
2022-10-12T21:11:39.470Z,22.40
2022-10-12T21:14:02.709Z,23.60
2022-10-12T21:16:27.012Z,19.88
2022-10-12T21:18:50.310Z,21.73
2022-10-12T21:21:17.128Z,23.30
2022-10-12T21:23:41.307Z,20.40
2022-10-12T21:26:11.700Z,18.73
2022-10-12T21:28:35.039Z,21.52
2022-10-12T21:31:00.004Z,18.48
2022-10-12T21:33:23.387Z,19.80
2022-10-12T21:35:46.664Z,20.63
2022-10-12T21:38:11.818Z,25.13
2022-10-12T21:40:35.969Z,20.95
2022-10-12T21:42:59.275Z,18.80
2022-10-12T21:45:22.503Z,19.92
2022-10-12T21:47:46.140Z,24.55
2022-10-12T21:50:10.501Z,20.80
2022-10-12T21:52:33.696Z,21.95
2022-10-12T21:54:58.280Z,21.65
2022-10-12T21:57:21.576Z,18.83
2022-10-12T21:59:45.158Z,22.58
2022-10-12T22:02:08.468Z,17.83
2022-10-12T22:04:33.537Z,23.33
2022-10-12T22:07:00.423Z,19.88
2022-10-12T22:09:23.988Z,21.00
2022-10-12T22:11:49.679Z,18.05
2022-10-12T22:14:15.933Z,24.48
2022-10-12T22:16:39.577Z,21.30
2022-10-12T22:19:05.561Z,18.08
2022-10-12T22:21:31.430Z,20.73
2022-10-12T22:23:54.923Z,17.02
2022-10-12T22:26:21.360Z,17.38
2022-10-12T22:28:51.125Z,21.23
2022-10-12T22:31:16.934Z,19.67
2022-10-12T22:33:40.596Z,18.48
2022-10-12T22:36:05.698Z,16.92
2022-10-12T22:38:30.091Z,18.65
2022-10-12T22:41:01.860Z,16.85
2022-10-12T22:43:25.452Z,13.90
2022-10-12T22:45:50.107Z,16.98
2022-10-12T22:48:13.350Z,16.92
2022-10-12T22:50:36.587Z,19.52
2022-10-12T22:52:59.825Z,17.70
2022-10-12T22:55:23.217Z,16.60
2022-10-12T22:57:46.856Z,17.63
2022-10-12T23:00:11.673Z,20.80
2022-10-12T23:02:36.251Z,16.00
2022-10-12T23:04:59.546Z,15.63
2022-10-12T23:07:22.771Z,16.92
2022-10-12T23:09:45.984Z,18.20
2022-10-12T23:12:09.412Z,16.70
2022-10-12T23:14:32.787Z,19.95
2022-10-12T23:16:56.044Z,23.58
2022-10-12T23:19:21.535Z,19.67
2022-10-12T23:21:44.959Z,18.33
2022-10-12T23:24:08.567Z,18.50
2022-10-12T23:26:31.962Z,18.73
2022-10-12T23:28:56.020Z,18.75
2022-10-12T23:31:21.966Z,18.98
2022-10-12T23:33:47.367Z,20.27
2022-10-12T23:36:14.465Z,22.33
2022-10-12T23:38:39.909Z,18.48
2022-10-12T23:41:03.472Z,18.50
2022-10-12T23:43:27.750Z,20.20
2022-10-12T23:45:51.586Z,21.48
2022-10-12T23:48:15.146Z,19.58
2022-10-12T23:50:42.989Z,19.85
2022-10-12T23:53:08.935Z,19.83
2022-10-12T23:55:33.138Z,21.48
2022-10-12T23:57:56.387Z,22.63
